createdAt,value
2017-07-02T15:05:26.419Z,23.47
2017-07-02T15:06:36.670Z,23.42
2017-07-02T15:07:46.612Z,23.43
2017-07-02T15:08:56.553Z,23.48
2017-07-02T15:10:06.502Z,23.43
2017-07-02T15:11:16.754Z,23.4
2017-07-02T15:12:26.689Z,23.36
2017-07-02T15:13:36.977Z,23.38
2017-07-02T15:14:47.216Z,23.42
2017-07-02T15:15:57.472Z,23.35
2017-07-02T15:17:07.733Z,23.43
2017-07-02T15:18:18.001Z,23.46
2017-07-02T15:19:27.950Z,23.36
2017-07-02T15:20:38.209Z,23.43
2017-07-02T15:21:48.480Z,23.43
2017-07-02T15:22:58.410Z,23.39
2017-07-02T15:24:08.037Z,23.43
2017-07-02T15:25:17.663Z,23.38
2017-07-02T15:26:27.601Z,23.39
2017-07-02T15:27:37.874Z,23.47
2017-07-02T15:28:47.524Z,23.43
2017-07-02T15:29:56.832Z,23.5
2017-07-02T15:31:07.089Z,23.51
2017-07-02T15:32:17.353Z,23.48
2017-07-02T15:33:27.604Z,23.5
2017-07-02T15:34:37.549Z,23.43
2017-07-02T15:35:47.474Z,23.48
2017-07-02T15:36:57.718Z,23.43
2017-07-02T15:38:07.351Z,23.43
2017-07-02T15:39:17.293Z,23.47
2017-07-02T15:40:27.537Z,23.35
2017-07-02T15:41:37.778Z,23.47
2017-07-02T15:42:47.442Z,23.47
2017-07-02T15:43:57.397Z,23.53
2017-07-02T15:45:07.344Z,23.48
2017-07-02T15:46:16.649Z,23.43
2017-07-02T15:47:26.898Z,23.5
2017-07-02T15:48:36.839Z,23.57
2017-07-02T15:49:46.790Z,23.57
2017-07-02T15:50:56.727Z,23.51
2017-07-02T15:52:06.039Z,23.54
2017-07-02T15:53:15.967Z,23.58
2017-07-02T15:54:26.223Z,23.55
2017-07-02T15:55:36.162Z,23.53
2017-07-02T15:56:45.783Z,23.54
2017-07-02T15:57:56.032Z,23.51
2017-07-02T15:59:06.298Z,23.5
2017-07-02T16:00:16.548Z,23.46
2017-07-02T16:01:26.208Z,23.47
2017-07-02T16:02:36.459Z,23.54
2017-07-02T16:03:46.725Z,23.46
2017-07-02T16:04:56.982Z,23.51
2017-07-02T16:06:06.906Z,23.53
2017-07-02T16:07:17.160Z,23.54
2017-07-02T16:08:27.097Z,23.65
2017-07-02T16:09:37.345Z,23.53
2017-07-02T16:10:47.294Z,23.53
2017-07-02T16:11:56.925Z,23.47
2017-07-02T16:13:07.176Z,23.51
2017-07-02T16:14:17.433Z,23.48
2017-07-02T16:15:27.685Z,23.47
2017-07-02T16:16:36.685Z,23.48
2017-07-02T16:17:46.931Z,23.53
2017-07-02T16:18:57.196Z,23.57
2017-07-02T16:20:07.140Z,23.51
2017-07-02T16:21:16.763Z,23.55
2017-07-02T16:22:26.715Z,23.57
2017-07-02T16:23:36.964Z,23.48
2017-07-02T16:24:47.218Z,23.5
2017-07-02T16:25:57.170Z,23.42
2017-07-02T16:27:07.108Z,23.42
2017-07-02T16:28:17.356Z,23.39
2017-07-02T16:29:27.328Z,23.4
2017-07-02T16:30:37.574Z,23.38
2017-07-02T16:31:47.514Z,23.43
2017-07-02T16:32:57.763Z,23.4
2017-07-02T16:34:07.695Z,23.25
2017-07-02T16:35:17.642Z,23.09
2017-07-02T16:36:27.887Z,22.85
2017-07-02T16:37:38.138Z,22.68
2017-07-02T16:38:48.384Z,22.54
2017-07-02T16:39:58.014Z,22.46
2017-07-02T16:41:07.946Z,22.39
2017-07-02T16:42:17.575Z,22.4
2017-07-02T16:43:27.833Z,22.39
2017-07-02T16:44:38.091Z,22.36
2017-07-02T16:45:48.339Z,22.24
2017-07-02T16:46:58.268Z,22.28
2017-07-02T16:48:08.527Z,22.28
2017-07-02T16:49:18.505Z,22.3
2017-07-02T16:50:28.762Z,22.28
2017-07-02T16:51:38.379Z,22.22
2017-07-02T16:52:48.636Z,22.14
2017-07-02T16:53:58.891Z,22.15
2017-07-02T16:55:08.812Z,22.2
2017-07-02T16:56:18.750Z,22.18
2017-07-02T16:57:28.739Z,22.27
2017-07-02T16:58:38.983Z,22.24
2017-07-02T16:59:49.301Z,22.14
2017-07-02T17:00:58.994Z,22.1
2017-07-02T17:02:08.613Z,22.12
2017-07-02T17:03:18.239Z,21.98
2017-07-02T17:04:28.498Z,22.03
2017-07-02T17:05:38.424Z,22.02
2017-07-02T17:06:48.677Z,22.03
2017-07-02T17:07:58.924Z,22.06
2017-07-02T17:09:09.183Z,22.03
2017-07-02T17:10:19.127Z,22.06
2017-07-02T17:11:29.057Z,21.94
2017-07-02T17:12:38.688Z,21.94
2017-07-02T17:13:48.945Z,21.98
2017-07-02T17:14:58.891Z,21.98
2017-07-02T17:16:08.834Z,21.91
2017-07-02T17:17:18.773Z,21.92
2017-07-02T17:18:29.033Z,21.92
2017-07-02T17:19:38.968Z,21.9
2017-07-02T17:20:49.216Z,21.98
2017-07-02T17:21:59.472Z,21.98
2017-07-02T17:23:09.715Z,21.96
2017-07-02T17:24:19.034Z,21.94
2017-07-02T17:25:28.968Z,21.94
2017-07-02T17:26:39.212Z,21.91
2017-07-02T17:27:49.144Z,21.9
2017-07-02T17:28:59.396Z,21.88
2017-07-02T17:30:09.641Z,21.88
2017-07-02T17:31:19.878Z,21.84
2017-07-02T17:32:29.557Z,21.83
2017-07-02T17:33:39.812Z,21.96
2017-07-02T17:34:50.073Z,21.94
2017-07-02T17:36:00.318Z,21.94
2017-07-02T17:37:10.579Z,21.92
2017-07-02T17:38:20.529Z,21.8
2017-07-02T17:39:30.453Z,21.74
2017-07-02T17:40:40.698Z,21.72
2017-07-02T17:41:50.948Z,21.82
2017-07-02T17:43:01.204Z,21.8
2017-07-02T17:44:11.445Z,21.72
2017-07-02T17:45:21.699Z,21.79
2017-07-02T17:46:31.635Z,21.9
2017-07-02T17:47:41.575Z,21.82
2017-07-02T17:48:51.837Z,21.77
2017-07-02T17:50:02.087Z,21.83
2017-07-02T17:51:11.704Z,21.84
2017-07-02T17:52:21.632Z,21.77
2017-07-02T17:53:31.569Z,21.71
2017-07-02T17:54:41.847Z,21.72
2017-07-02T17:55:51.791Z,21.79
2017-07-02T17:57:01.737Z,21.74
2017-07-02T17:58:11.051Z,21.72
2017-07-02T17:59:21.309Z,21.82
2017-07-02T18:00:30.924Z,21.84
2017-07-02T18:01:41.174Z,21.9
2017-07-02T18:02:51.122Z,21.94
2017-07-02T18:04:01.401Z,22.05
2017-07-02T18:05:11.348Z,22.02
2017-07-02T18:06:20.961Z,21.82
2017-07-02T18:07:30.581Z,21.84
2017-07-02T18:08:40.830Z,21.94
2017-07-02T18:09:51.089Z,22.1
2017-07-02T18:11:00.717Z,22.07
2017-07-02T18:12:10.957Z,22.05
2017-07-02T18:13:21.217Z,21.91
2017-07-02T18:14:31.513Z,21.96
2017-07-02T18:15:41.771Z,21.96
2017-07-02T18:16:51.717Z,21.84
2017-07-02T18:18:01.964Z,21.86
2017-07-02T18:19:11.902Z,21.84
2017-07-02T18:20:22.151Z,21.8
2017-07-02T18:21:32.087Z,21.64
2017-07-02T18:22:42.335Z,21.62
2017-07-02T18:23:52.593Z,21.62
2017-07-02T18:25:02.845Z,21.61
2017-07-02T18:26:13.098Z,21.53
2017-07-02T18:27:23.083Z,21.54
2017-07-02T18:28:33.020Z,21.62
2017-07-02T18:29:42.324Z,21.58
2017-07-02T18:30:52.254Z,21.59
2017-07-02T18:32:02.508Z,21.5
2017-07-02T18:33:12.757Z,21.58
2017-07-02T18:34:23.011Z,21.47
2017-07-02T18:35:32.641Z,21.53
2017-07-02T18:36:42.275Z,21.49
2017-07-02T18:37:52.210Z,21.43
2017-07-02T18:39:02.469Z,21.42
2017-07-02T18:40:12.421Z,21.4
2017-07-02T18:41:22.347Z,21.58
2017-07-02T18:42:32.284Z,21.54
2017-07-02T18:43:42.218Z,21.5
2017-07-02T18:44:52.464Z,21.58
2017-07-02T18:46:02.092Z,21.58
2017-07-02T18:47:12.359Z,21.44
2017-07-02T18:48:21.977Z,21.43
2017-07-02T18:49:32.282Z,21.35
2017-07-02T18:50:42.222Z,21.38
2017-07-02T18:51:52.166Z,21.37
2017-07-02T18:53:02.420Z,21.42
2017-07-02T18:54:12.366Z,21.43
2017-07-02T18:55:22.628Z,21.32
2017-07-02T18:56:32.574Z,21.31
2017-07-02T18:57:42.826Z,21.28
2017-07-02T18:58:52.765Z,21.37
2017-07-02T19:00:03.015Z,21.42
2017-07-02T19:01:12.950Z,21.4
2017-07-02T19:02:23.200Z,21.34
2017-07-02T19:03:33.449Z,21.42
2017-07-02T19:04:43.751Z,21.34
2017-07-02T19:05:54.011Z,21.38
2017-07-02T19:07:03.961Z,21.42
2017-07-02T19:08:14.214Z,21.31
2017-07-02T19:09:23.844Z,21.27
2017-07-02T19:10:33.776Z,21.25
2017-07-02T19:11:44.024Z,21.28
2017-07-02T19:12:54.281Z,21.35
2017-07-02T19:14:04.537Z,21.44
2017-07-02T19:15:14.789Z,21.35
2017-07-02T19:16:25.029Z,21.25
2017-07-02T19:17:35.287Z,21.31
2017-07-02T19:18:45.215Z,21.27
2017-07-02T19:19:55.461Z,21.27
2017-07-02T19:21:05.714Z,21.27
2017-07-02T19:22:15.659Z,21.22
2017-07-02T19:23:25.914Z,21.25
2017-07-02T19:24:36.175Z,21.24
2017-07-02T19:25:46.112Z,21.22
2017-07-02T19:26:56.340Z,21.21
2017-07-02T19:28:06.590Z,21.29
2017-07-02T19:29:16.848Z,21.28
2017-07-02T19:30:27.105Z,21.24
2017-07-02T19:31:37.368Z,21.17
2017-07-02T19:32:47.306Z,21.24
2017-07-02T19:33:57.575Z,21.25
2017-07-02T19:35:07.510Z,21.25
2017-07-02T19:36:17.456Z,21.34
2017-07-02T19:37:27.700Z,21.22
2017-07-02T19:38:37.951Z,21.17
2017-07-02T19:39:47.878Z,21.07
2017-07-02T19:40:57.818Z,21.03
2017-07-02T19:42:07.749Z,21.1
2017-07-02T19:43:17.698Z,21.09
2017-07-02T19:44:27.944Z,21.09
2017-07-02T19:45:37.878Z,21.06
2017-07-02T19:46:48.140Z,21.07
2017-07-02T19:47:58.389Z,21.12
2017-07-02T19:49:08.329Z,21.09
2017-07-02T19:50:18.587Z,21.14
2017-07-02T19:51:28.526Z,21.06
2017-07-02T19:52:38.465Z,21.1
2017-07-02T19:53:48.725Z,21.17
2017-07-02T19:54:58.657Z,21.16
2017-07-02T19:56:08.595Z,21.07
2017-07-02T19:57:18.846Z,21.12
2017-07-02T19:58:28.788Z,21.13
2017-07-02T19:59:39.043Z,21.01
2017-07-02T20:00:48.986Z,20.99
2017-07-02T20:01:58.981Z,20.98
2017-07-02T20:03:09.232Z,20.92
2017-07-02T20:04:19.185Z,21.01
2017-07-02T20:05:29.124Z,21.03
2017-07-02T20:06:39.055Z,20.89
2017-07-02T20:07:48.680Z,20.95
2017-07-02T20:08:58.926Z,20.85
2017-07-02T20:10:08.861Z,20.82
2017-07-02T20:11:19.106Z,20.82
2017-07-02T20:12:29.361Z,20.91
2017-07-02T20:13:39.619Z,20.85
2017-07-02T20:14:49.933Z,20.79
2017-07-02T20:15:59.856Z,20.74
2017-07-02T20:17:09.795Z,20.82
2017-07-02T20:18:20.041Z,20.89
2017-07-02T20:19:29.984Z,20.82
2017-07-02T20:20:40.236Z,20.79
2017-07-02T20:21:50.493Z,20.84
2017-07-02T20:23:00.727Z,20.89
2017-07-02T20:24:10.661Z,20.92
2017-07-02T20:25:20.921Z,21.03
2017-07-02T20:26:30.541Z,20.97
2017-07-02T20:27:40.488Z,20.97
2017-07-02T20:28:50.755Z,20.79
2017-07-02T20:30:00.392Z,20.74
2017-07-02T20:31:10.635Z,20.74
2017-07-02T20:32:20.874Z,20.77
2017-07-02T20:33:30.810Z,20.72
2017-07-02T20:34:40.752Z,20.7
2017-07-02T20:35:51.033Z,20.73
2017-07-02T20:37:01.373Z,20.82
2017-07-02T20:38:11.006Z,20.76
2017-07-02T20:39:21.244Z,20.73
2017-07-02T20:40:31.172Z,20.89
2017-07-02T20:41:41.121Z,20.89
2017-07-02T20:42:51.377Z,20.88
2017-07-02T20:44:01.633Z,20.85
2017-07-02T20:45:11.896Z,20.92
2017-07-02T20:46:21.830Z,20.95
2017-07-02T20:47:31.781Z,20.89
2017-07-02T20:48:41.716Z,20.92
2017-07-02T20:49:51.961Z,20.88
2017-07-02T20:51:02.210Z,20.95
2017-07-02T20:52:12.462Z,20.82
2017-07-02T20:53:22.730Z,20.8
2017-07-02T20:54:32.409Z,20.74
2017-07-02T20:55:42.342Z,20.73
2017-07-02T20:56:52.288Z,20.82
2017-07-02T20:58:02.231Z,20.84
2017-07-02T20:59:12.483Z,20.77
2017-07-02T21:00:22.718Z,20.82
2017-07-02T21:01:32.642Z,20.87
2017-07-02T21:02:42.265Z,20.85
2017-07-02T21:03:52.255Z,20.79
2017-07-02T21:05:02.507Z,20.84
2017-07-02T21:06:12.435Z,20.82
2017-07-02T21:07:22.062Z,20.74
2017-07-02T21:08:32.322Z,20.79
2017-07-02T21:09:41.936Z,20.8
2017-07-02T21:10:52.204Z,20.77
2017-07-02T21:12:02.139Z,20.84
2017-07-02T21:13:12.074Z,20.72
2017-07-02T21:14:22.018Z,20.76
2017-07-02T21:15:32.285Z,20.76
2017-07-02T21:16:42.221Z,20.82
2017-07-02T21:17:52.475Z,20.74
2017-07-02T21:19:02.783Z,20.76
2017-07-02T21:20:12.712Z,20.76
2017-07-02T21:21:22.949Z,20.76
2017-07-02T21:22:33.192Z,20.77
2017-07-02T21:23:43.431Z,20.82
2017-07-02T21:24:53.678Z,20.76
2017-07-02T21:26:03.923Z,20.79
2017-07-02T21:27:14.174Z,20.8
2017-07-02T21:28:24.117Z,20.77
2017-07-02T21:29:34.059Z,20.82
2017-07-02T21:30:43.678Z,20.77
2017-07-02T21:31:53.950Z,20.74
2017-07-02T21:33:04.192Z,20.73
2017-07-02T21:34:14.124Z,20.74
2017-07-02T21:35:23.748Z,20.8
2017-07-02T21:36:33.675Z,20.74
2017-07-02T21:37:43.621Z,20.74
2017-07-02T21:38:53.559Z,20.77
2017-07-02T21:40:03.820Z,20.69
2017-07-02T21:41:14.078Z,20.76
2017-07-02T21:42:24.342Z,20.77
2017-07-02T21:43:34.592Z,20.7
2017-07-02T21:44:44.523Z,20.48
2017-07-02T21:45:54.505Z,20.5
2017-07-02T21:47:04.758Z,20.48
2017-07-02T21:48:14.722Z,20.48
2017-07-02T21:49:24.977Z,20.48
2017-07-02T21:50:34.902Z,20.48
2017-07-02T21:51:45.158Z,20.51
2017-07-02T21:52:55.091Z,20.42
2017-07-02T21:54:05.026Z,20.43
2017-07-02T21:55:15.365Z,20.52
2017-07-02T21:56:25.355Z,20.42
2017-07-02T21:57:34.985Z,20.41
2017-07-02T21:58:44.921Z,20.43
2017-07-02T21:59:54.861Z,20.48
2017-07-02T22:01:05.117Z,20.38
2017-07-02T22:02:15.377Z,20.39
2017-07-02T22:03:25.619Z,20.5
2017-07-02T22:04:35.883Z,20.36
2017-07-02T22:05:46.130Z,20.24
2017-07-02T22:06:55.757Z,20.29
2017-07-02T22:08:06.010Z,20.16
2017-07-02T22:09:16.261Z,20.28
2017-07-02T22:10:26.521Z,20.38
2017-07-02T22:11:36.778Z,20.38
2017-07-02T22:12:47.033Z,20.38
2017-07-02T22:13:56.973Z,20.35
2017-07-02T22:15:07.218Z,20.33
2017-07-02T22:16:17.465Z,20.29
2017-07-02T22:17:27.725Z,20.16
2017-07-02T22:18:37.666Z,20.14
2017-07-02T22:19:47.602Z,20.18
2017-07-02T22:20:57.861Z,20.13
2017-07-02T22:22:08.129Z,20.1
2017-07-02T22:23:18.069Z,20.11
2017-07-02T22:24:27.708Z,20.14
2017-07-02T22:25:37.979Z,20.16
2017-07-02T22:26:48.214Z,20.14
2017-07-02T22:27:58.156Z,20.16
2017-07-02T22:29:08.410Z,20.21
2017-07-02T22:30:18.657Z,20.08
2017-07-02T22:31:28.594Z,20.14
2017-07-02T22:32:38.841Z,20.14
2017-07-02T22:33:49.078Z,20.1
2017-07-02T22:34:59.010Z,20.05
2017-07-02T22:36:08.317Z,20.28
2017-07-02T22:37:18.563Z,20.35
2017-07-02T22:38:28.491Z,20.17
2017-07-02T22:39:38.436Z,20.16
2017-07-02T22:40:48.685Z,20.24
2017-07-02T22:41:58.629Z,20.16
2017-07-02T22:43:08.252Z,20.18
2017-07-02T22:44:17.876Z,20.13
2017-07-02T22:45:28.126Z,20.05
2017-07-02T22:46:38.093Z,20.06
2017-07-02T22:47:48.336Z,19.95
2017-07-02T22:48:58.269Z,19.94
2017-07-02T22:50:07.894Z,19.88
2017-07-02T22:51:18.148Z,19.99
2017-07-02T22:52:28.409Z,20.03
2017-07-02T22:53:38.681Z,20.06
2017-07-02T22:54:48.919Z,20.06
2017-07-02T22:55:58.857Z,20.03
2017-07-02T22:57:08.789Z,20.08
2017-07-02T22:58:18.732Z,20.08
2017-07-02T22:59:28.347Z,20.08
2017-07-02T23:00:38.593Z,19.99
2017-07-02T23:01:48.841Z,19.92
2017-07-02T23:02:58.768Z,19.87
2017-07-02T23:04:09.012Z,19.84
2017-07-02T23:05:18.944Z,19.87
2017-07-02T23:06:28.876Z,19.95
2017-07-02T23:07:38.539Z,19.99
2017-07-02T23:08:48.501Z,19.87
2017-07-02T23:09:58.745Z,19.88
2017-07-02T23:11:08.994Z,19.94
2017-07-02T23:12:19.239Z,19.77
2017-07-02T23:13:29.494Z,19.73
2017-07-02T23:14:39.748Z,19.83
2017-07-02T23:15:50.002Z,19.78
2017-07-02T23:17:00.276Z,19.76
2017-07-02T23:18:09.579Z,19.71
2017-07-02T23:19:19.516Z,19.68
2017-07-02T23:20:29.448Z,19.71
2017-07-02T23:21:39.696Z,19.63
2017-07-02T23:22:49.672Z,19.76
2017-07-02T23:23:59.924Z,19.71
2017-07-02T23:25:10.178Z,19.69
2017-07-02T23:26:20.430Z,19.69
2017-07-02T23:27:30.683Z,19.65
2017-07-02T23:28:40.302Z,19.66
2017-07-02T23:29:50.552Z,19.66
2017-07-02T23:31:00.801Z,19.62
2017-07-02T23:32:10.742Z,19.62
2017-07-02T23:33:21.000Z,19.61
2017-07-02T23:34:30.954Z,19.55
2017-07-02T23:35:40.894Z,19.47
2017-07-02T23:36:51.140Z,19.55
2017-07-02T23:38:01.056Z,19.56
2017-07-02T23:39:10.980Z,19.62
2017-07-02T23:40:20.598Z,19.63
2017-07-02T23:41:30.852Z,19.68
2017-07-02T23:42:41.088Z,19.56
2017-07-02T23:43:50.723Z,19.54
2017-07-02T23:45:00.963Z,19.58
2017-07-02T23:46:11.257Z,19.59
2017-07-02T23:47:21.193Z,19.54
2017-07-02T23:48:31.178Z,19.47
2017-07-02T23:49:41.433Z,19.51
2017-07-02T23:50:51.686Z,19.54
2017-07-02T23:52:01.613Z,19.5
2017-07-02T23:53:11.870Z,19.61
2017-07-02T23:54:21.802Z,19.63
2017-07-02T23:55:31.426Z,19.58
2017-07-02T23:56:41.673Z,19.59
2017-07-02T23:57:51.618Z,19.5
2017-07-02T23:59:01.872Z,19.41
